Thedford, NE (69166)

7:12 AM CST on December 03, 2016 (GMT -0600)
Thedford | | Change Station

Elev 2927 ft 41.96 °N, 100.57 °W | Updated 17 minutes ago

Overcast
Overcast
34 °F
Feels Like 28 °F
N
7
Wind Variable Wind from SSW

Today
High -- | Low -- °F
--% Chance of Precip.
Yesterday
High -- | Low -- °F
Precip. -- in
Pressure 30.11 in
Visibility 10.0 miles
Clouds Scattered Clouds 4500 ft
Mostly Cloudy 5000 ft
Overcast 7500 ft
Windchill 28 °F
Dew Point 26 °F
Humidity 73%
Rainfall 0.00 in
Snow Depth Not available.
7:53 AM 5:11 PM
Waxing Crescent, 15% visible
METAR KTIF 031255Z AUTO 20006KT 10SM SCT045 BKN050 OVC075 01/M03 A3011 RMK AO2 T00101033
Pressure 30.11 in
Visibility 10.0 miles
Clouds Scattered Clouds 4500 ft
Mostly Cloudy 5000 ft
Overcast 7500 ft
Windchill 28 °F
Dew Point 26 °F
Humidity 73%
Rainfall 0.00 in
Snow Depth Not available.
7:53 AM 5:11 PM
Waxing Crescent, 15% visible
METAR KTIF 031255Z AUTO 20006KT 10SM SCT045 BKN050 OVC075 01/M03 A3011 RMK AO2 T00101033

10-Day Weather Forecast

Almanac

Astronomy

Dec. 03, 2016 Rise Set
Actual Time
Civil Twilight
Nautical Twilight
Astronomical Twilight
Moon
Length of Visible Light
Length of Day
Tomorrow will be .
, % of the Moon is Illuminated

Today's Extremes

State Highs State Lows

Community

WunderPhotos

Upload Photos

1,955,443 photos uploaded!

WunderBlog® & News

Nearby

Air Quality

  Air Quality AQ Index Pollutant
Not available.

Snow Depth

Station Depth Elevation

Earthquake Activity

City Distance Mag. Time & Date
Minimum magnitude displayed is 2.5.

Coastal Water Temperatures

Place Temperature

Stations

Nearby Weather Stations

Station Location Temp. Windchill Dew Point Humidity Wind Precip. Elev Updated Type
                   

Watches & Warnings

There are currently no watches in effect.